Time;durP1;ratioP1;P1;durP2;ratioP2;P2;SDS_P1;SDS_P2;PMS_P1;PMS_P2;Temp;Humidity;BMP_temperature;BMP_pressure;BME280_temperature;BME280_humidity;BME280_pressure;Samples;Min_cycle;Max_cycle;Signal;HPM_P1;HPM_P2
2022/10/17 00:04:34;;;;;;;15.70;8.48;;;;;;;;;;10537132;28;20032;-48
2022/10/17 00:09:35;;;;;;;13.30;9.43;;;;;;;;;;10536234;28;20032;-49
2022/10/17 00:14:35;;;;;;;12.43;9.23;;;;;;;;;;10535867;28;20502;-49
2022/10/17 00:19:35;;;;;;;12.87;8.20;;;;;;;;;;10537179;28;20026;-50
2022/10/17 00:24:36;;;;;;;14.43;9.52;;;;;;;;;;10535840;28;20096;-50
2022/10/17 00:29:36;;;;;;;12.70;8.45;;;;;;;;;;10536106;28;20028;-49
2022/10/17 00:34:36;;;;;;;11.07;8.93;;;;;;;;;;10535396;28;20027;-49
2022/10/17 00:39:37;;;;;;;12.43;8.10;;;;;;;;;;10534209;28;20477;-49
2022/10/17 00:44:40;;;;;;;9.83;7.47;;;;;;;;;;10535108;28;20024;-49
2022/10/17 00:49:40;;;;;;;9.70;8.18;;;;;;;;;;10535416;28;20490;-53
2022/10/17 00:54:44;;;;;;;11.15;8.90;;;;;;;;;;10533728;28;20027;-52
2022/10/17 00:59:46;;;;;;;14.30;8.82;;;;;;;;;;10534411;28;20023;-52
2022/10/17 01:04:48;;;;;;;13.43;8.07;;;;;;;;;;10534764;28;20039;-54
2022/10/17 01:09:49;;;;;;;12.25;8.20;;;;;;;;;;10534368;28;20032;-53
2022/10/17 01:14:55;;;;;;;13.00;9.00;;;;;;;;;;10533827;28;20094;-55
2022/10/17 01:20:04;;;;;;;14.90;8.35;;;;;;;;;;10533741;28;20123;-52
2022/10/17 01:25:10;;;;;;;10.40;7.38;;;;;;;;;;10533321;28;20487;-50
2022/10/17 01:30:17;;;;;;;9.68;7.97;;;;;;;;;;10533877;28;20540;-50
2022/10/17 01:35:20;;;;;;;8.27;7.38;;;;;;;;;;10533028;28;20036;-50
2022/10/17 01:40:47;;;;;;;11.88;8.25;;;;;;;;;;10533247;28;20032;-50
2022/10/17 01:46:13;;;;;;;15.40;8.40;;;;;;;;;;10509971;28;20067;-51
2022/10/17 01:51:36;;;;;;;11.48;8.18;;;;;;;;;;10508915;28;20489;-50
2022/10/17 01:56:38;;;;;;;10.52;7.97;;;;;;;;;;10524185;28;20403;-50
2022/10/17 02:01:40;;;;;;;9.75;7.28;;;;;;;;;;10533365;28;20387;-52
2022/10/17 02:06:40;;;;;;;11.05;7.45;;;;;;;;;;10532752;28;20426;-50
2022/10/17 02:11:41;;;;;;;8.90;7.87;;;;;;;;;;10532547;28;20035;-51
2022/10/17 02:16:50;;;;;;;9.63;7.95;;;;;;;;;;10533009;28;20042;-51
2022/10/17 02:22:12;;;;;;;9.20;7.47;;;;;;;;;;10533098;28;20034;-50
2022/10/17 02:27:31;;;;;;;14.35;7.75;;;;;;;;;;10532171;28;20073;-51
2022/10/17 02:32:54;;;;;;;10.90;7.97;;;;;;;;;;10532276;28;20028;-50
2022/10/17 02:37:55;;;;;;;14.02;9.57;;;;;;;;;;10529837;28;20160;-51
2022/10/17 02:42:57;;;;;;;12.32;8.57;;;;;;;;;;10540390;28;20471;-50
2022/10/17 02:48:14;;;;;;;9.40;8.35;;;;;;;;;;10539981;28;20036;-48
2022/10/17 02:53:18;;;;;;;10.63;8.38;;;;;;;;;;10538118;28;20390;-51
2022/10/17 02:58:20;;;;;;;8.98;7.90;;;;;;;;;;10539816;28;20118;-49
2022/10/17 03:03:25;;;;;;;8.38;7.50;;;;;;;;;;10538833;28;20111;-52
2022/10/17 03:08:25;;;;;;;10.13;7.95;;;;;;;;;;10539065;28;20024;-53
2022/10/17 03:13:25;;;;;;;9.57;7.77;;;;;;;;;;10538344;28;20047;-50
2022/10/17 03:18:26;;;;;;;10.07;7.25;;;;;;;;;;10539115;28;20032;-49
2022/10/17 03:23:26;;;;;;;8.43;7.00;;;;;;;;;;10538093;28;20039;-50
2022/10/17 03:28:26;;;;;;;10.90;7.35;;;;;;;;;;10538046;28;20031;-49
2022/10/17 03:33:26;;;;;;;11.43;8.00;;;;;;;;;;10538405;28;20115;-49
2022/10/17 03:38:27;;;;;;;8.02;7.13;;;;;;;;;;10538232;28;20042;-50
2022/10/17 03:43:27;;;;;;;10.52;7.65;;;;;;;;;;10537295;28;20024;-51
2022/10/17 03:48:29;;;;;;;9.98;7.65;;;;;;;;;;10536548;28;20034;-54
2022/10/17 03:53:29;;;;;;;11.73;7.95;;;;;;;;;;10535990;28;20081;-49
2022/10/17 03:58:29;;;;;;;9.05;6.93;;;;;;;;;;10537130;28;20032;-52
2022/10/17 04:03:29;;;;;;;8.00;7.20;;;;;;;;;;10537107;28;20035;-51
2022/10/17 04:08:30;;;;;;;11.55;7.93;;;;;;;;;;10537295;28;20761;-53
2022/10/17 04:13:31;;;;;;;9.35;7.53;;;;;;;;;;10535976;28;20544;-53
2022/10/17 04:18:31;;;;;;;19.38;7.53;;;;;;;;;;10536058;28;20035;-50
2022/10/17 04:23:32;;;;;;;9.02;6.88;;;;;;;;;;10535788;28;20488;-49
2022/10/17 04:28:32;;;;;;;8.30;7.22;;;;;;;;;;10535687;28;20028;-55
2022/10/17 04:33:33;;;;;;;8.68;6.90;;;;;;;;;;10535460;28;20028;-50
2022/10/17 04:38:33;;;;;;;9.65;6.70;;;;;;;;;;10534114;28;20038;-54
2022/10/17 04:43:35;;;;;;;9.02;7.20;;;;;;;;;;10535451;28;20055;-50
2022/10/17 04:48:35;;;;;;;9.25;7.07;;;;;;;;;;10535391;28;20107;-50
2022/10/17 04:53:36;;;;;;;9.55;7.05;;;;;;;;;;10534519;28;20135;-53
2022/10/17 04:58:37;;;;;;;9.32;7.05;;;;;;;;;;10534045;28;20028;-56
2022/10/17 05:03:37;;;;;;;18.55;7.13;;;;;;;;;;10534047;28;20467;-52
2022/10/17 05:08:38;;;;;;;8.80;6.80;;;;;;;;;;10534693;28;20034;-57
2022/10/17 05:13:38;;;;;;;9.07;7.00;;;;;;;;;;10533633;28;20048;-57
2022/10/17 05:18:38;;;;;;;7.90;6.43;;;;;;;;;;10533801;28;20536;-54
2022/10/17 05:23:39;;;;;;;8.90;6.33;;;;;;;;;;10533812;28;20019;-55
2022/10/17 05:28:39;;;;;;;11.95;6.75;;;;;;;;;;10533343;28;20028;-56
2022/10/17 05:33:39;;;;;;;11.33;6.80;;;;;;;;;;10533784;28;20110;-52
2022/10/17 05:38:40;;;;;;;17.97;8.17;;;;;;;;;;10533085;28;20551;-53
2022/10/17 05:43:40;;;;;;;35.40;16.13;;;;;;;;;;10532157;28;20501;-50
2022/10/17 05:48:40;;;;;;;45.17;25.33;;;;;;;;;;10531488;28;20379;-49
2022/10/17 05:53:41;;;;;;;46.90;29.15;;;;;;;;;;10532993;28;20058;-59
2022/10/17 05:58:42;;;;;;;44.70;29.10;;;;;;;;;;10532060;28;20319;-54
2022/10/17 06:03:42;;;;;;;34.78;22.55;;;;;;;;;;10532501;28;20025;-55
2022/10/17 06:08:43;;;;;;;40.05;21.45;;;;;;;;;;10532124;28;20077;-67
2022/10/17 06:13:43;;;;;;;36.28;21.33;;;;;;;;;;10538774;28;20070;-61
2022/10/17 06:18:44;;;;;;;30.92;20.25;;;;;;;;;;10540121;28;20031;-61
2022/10/17 06:23:44;;;;;;;30.80;20.60;;;;;;;;;;10540991;28;20028;-66
2022/10/17 06:28:44;;;;;;;29.05;19.30;;;;;;;;;;10540448;28;20383;-56
2022/10/17 06:33:44;;;;;;;27.73;18.15;;;;;;;;;;10537898;28;20365;-52
2022/10/17 06:38:45;;;;;;;33.15;18.98;;;;;;;;;;10540022;28;20028;-60
2022/10/17 06:43:46;;;;;;;25.55;19.35;;;;;;;;;;10540508;28;20057;-61
2022/10/17 06:48:46;;;;;;;29.63;17.83;;;;;;;;;;10540124;28;20031;-59
2022/10/17 06:53:46;;;;;;;24.17;17.67;;;;;;;;;;10539449;28;20118;-64
2022/10/17 06:58:49;;;;;;;22.20;16.55;;;;;;;;;;10539592;28;20039;-61
2022/10/17 07:03:49;;;;;;;28.35;16.08;;;;;;;;;;10539076;28;20084;-54
2022/10/17 07:08:50;;;;;;;25.73;16.33;;;;;;;;;;10538302;28;20076;-63
2022/10/17 07:13:50;;;;;;;22.97;15.50;;;;;;;;;;10538672;28;20043;-61
2022/10/17 07:18:51;;;;;;;22.55;16.08;;;;;;;;;;10539668;28;20578;-63
2022/10/17 07:23:51;;;;;;;18.88;15.88;;;;;;;;;;10537352;28;20499;-49
2022/10/17 07:28:53;;;;;;;24.37;14.73;;;;;;;;;;10538406;28;20103;-63
2022/10/17 07:33:54;;;;;;;19.67;15.00;;;;;;;;;;10539012;28;20032;-49
2022/10/17 07:38:54;;;;;;;20.50;14.30;;;;;;;;;;10538217;28;20437;-56
2022/10/17 07:43:54;;;;;;;19.88;14.02;;;;;;;;;;10537368;28;20032;-64
2022/10/17 07:48:55;;;;;;;16.98;13.32;;;;;;;;;;10537611;28;20471;-65
2022/10/17 07:53:55;;;;;;;22.33;13.40;;;;;;;;;;10537128;28;20697;-51
2022/10/17 07:58:56;;;;;;;19.63;14.32;;;;;;;;;;10537281;28;20498;-63
2022/10/17 08:03:56;;;;;;;19.33;13.75;;;;;;;;;;10537299;28;20454;-56
2022/10/17 08:08:57;;;;;;;20.20;13.65;;;;;;;;;;10537105;28;20103;-65
2022/10/17 08:13:57;;;;;;;16.17;12.90;;;;;;;;;;10536458;28;20040;-59
2022/10/17 08:18:58;;;;;;;20.60;13.27;;;;;;;;;;10535072;28;20028;-59
2022/10/17 08:23:58;;;;;;;16.98;12.70;;;;;;;;;;10534495;28;20024;-59
2022/10/17 08:28:58;;;;;;;18.98;12.95;;;;;;;;;;10536131;28;20076;-55
2022/10/17 08:33:58;;;;;;;19.35;12.80;;;;;;;;;;10533229;28;20372;-56
2022/10/17 08:38:59;;;;;;;21.10;13.18;;;;;;;;;;10535219;28;20028;-59
2022/10/17 08:44:18;;;;;;;16.23;12.07;;;;;;;;;;10533933;28;20266;-53
2022/10/17 08:49:24;;;;;;;15.70;12.13;;;;;;;;;;10532380;28;20036;-52
2022/10/17 08:54:40;;;;;;;14.73;11.95;;;;;;;;;;10534645;28;20113;-58
2022/10/17 08:59:40;;;;;;;18.35;12.43;;;;;;;;;;10516870;28;20067;-54
2022/10/17 09:05:00;;;;;;;17.27;12.15;;;;;;;;;;10532798;28;20470;-57
2022/10/17 09:10:03;;;;;;;19.08;12.55;;;;;;;;;;10534027;28;20024;-57
2022/10/17 09:15:04;;;;;;;14.52;12.15;;;;;;;;;;10533515;28;20491;-60
2022/10/17 09:20:14;;;;;;;16.65;12.30;;;;;;;;;;10534156;28;20044;-61
2022/10/17 09:25:15;;;;;;;19.42;13.18;;;;;;;;;;10533407;28;20077;-48
2022/10/17 09:30:16;;;;;;;16.52;11.75;;;;;;;;;;10533770;28;20055;-56
2022/10/17 09:35:16;;;;;;;15.65;11.60;;;;;;;;;;10533022;28;20097;-62
2022/10/17 09:40:20;;;;;;;18.80;11.45;;;;;;;;;;10533135;28;20092;-63
2022/10/17 09:45:25;;;;;;;17.25;11.60;;;;;;;;;;10532828;28;20039;-65
2022/10/17 09:50:27;;;;;;;15.23;11.43;;;;;;;;;;10532766;28;20421;-62
2022/10/17 09:55:34;;;;;;;15.25;10.93;;;;;;;;;;10532415;28;20108;-64
2022/10/17 10:00:41;;;;;;;13.45;11.43;;;;;;;;;;10532378;28;20111;-65
2022/10/17 10:05:42;;;;;;;14.07;11.00;;;;;;;;;;10532708;28;20024;-51
2022/10/17 10:10:43;;;;;;;16.58;11.30;;;;;;;;;;10531994;28;20383;-63
2022/10/17 10:15:45;;;;;;;14.88;11.18;;;;;;;;;;10530312;28;20047;-59
2022/10/17 10:20:45;;;;;;;14.18;10.75;;;;;;;;;;10532822;28;20032;-61
2022/10/17 10:25:51;;;;;;;14.88;11.13;;;;;;;;;;10532044;28;20032;-57
2022/10/17 10:30:53;;;;;;;14.85;10.77;;;;;;;;;;10532101;28;20078;-52
2022/10/17 10:35:58;;;;;;;15.30;11.07;;;;;;;;;;10531595;28;20353;-55
2022/10/17 10:41:06;;;;;;;14.65;11.52;;;;;;;;;;10531677;28;20084;-60
2022/10/17 10:46:30;;;;;;;13.82;11.40;;;;;;;;;;10532173;28;20027;-52
2022/10/17 10:51:45;;;;;;;15.23;11.05;;;;;;;;;;10523073;28;20546;-60
2022/10/17 10:56:48;;;;;;;14.00;10.82;;;;;;;;;;10534722;28;20063;-62
2022/10/17 11:01:54;;;;;;;13.98;11.07;;;;;;;;;;10539550;28;20024;-62
2022/10/17 11:07:00;;;;;;;12.65;10.82;;;;;;;;;;10539527;28;20032;-54
2022/10/17 11:12:20;;;;;;;13.00;10.88;;;;;;;;;;10538623;28;20021;-53
2022/10/17 11:17:35;;;;;;;14.48;10.65;;;;;;;;;;10527188;28;20044;-58
2022/10/17 11:22:41;;;;;;;20.08;11.63;;;;;;;;;;10538347;28;20070;-61
2022/10/17 11:27:41;;;;;;;13.10;10.55;;;;;;;;;;10538012;28;20513;-63
2022/10/17 11:32:50;;;;;;;15.25;11.93;;;;;;;;;;10537224;28;20024;-61
2022/10/17 11:38:20;;;;;;;14.75;10.73;;;;;;;;;;10536357;28;20039;-55
2022/10/17 11:43:20;;;;;;;14.13;11.43;;;;;;;;;;10536900;28;20024;-63
2022/10/17 11:48:29;;;;;;;13.35;11.05;;;;;;;;;;10536589;28;20020;-61
2022/10/17 11:53:45;;;;;;;12.70;10.85;;;;;;;;;;10536351;28;20047;-65
2022/10/17 11:59:15;;;;;;;15.07;11.55;;;;;;;;;;10534388;28;20036;-55
2022/10/17 12:04:21;;;;;;;14.07;11.05;;;;;;;;;;10522085;28;20060;-54
2022/10/17 12:09:24;;;;;;;12.85;10.55;;;;;;;;;;10535107;28;20039;-64
2022/10/17 12:14:34;;;;;;;12.45;11.05;;;;;;;;;;10535282;28;20043;-63
2022/10/17 12:19:38;;;;;;;15.02;11.52;;;;;;;;;;10535401;28;20475;-48
2022/10/17 12:24:40;;;;;;;17.40;11.40;;;;;;;;;;10534379;28;20437;-64
2022/10/17 12:29:40;;;;;;;15.43;11.90;;;;;;;;;;10534640;28;20110;-61
2022/10/17 12:34:51;;;;;;;15.83;11.27;;;;;;;;;;10534967;28;20161;-65
2022/10/17 12:39:52;;;;;;;15.80;11.80;;;;;;;;;;10533029;28;20062;-65
2022/10/17 12:44:52;;;;;;;16.47;11.87;;;;;;;;;;10532614;28;20174;-62
2022/10/17 12:49:52;;;;;;;13.88;11.43;;;;;;;;;;10532645;28;20082;-61
2022/10/17 12:55:12;;;;;;;14.60;11.25;;;;;;;;;;10532497;28;20019;-62
2022/10/17 13:00:25;;;;;;;15.55;12.18;;;;;;;;;;10532621;28;20039;-63
2022/10/17 13:05:26;;;;;;;15.90;12.63;;;;;;;;;;10533182;28;20376;-62
2022/10/17 13:10:28;;;;;;;20.00;12.43;;;;;;;;;;10533492;28;20039;-64
2022/10/17 13:15:28;;;;;;;18.95;13.88;;;;;;;;;;10533218;28;20047;-50
2022/10/17 13:20:29;;;;;;;16.33;13.00;;;;;;;;;;10527805;28;20019;-64
2022/10/17 13:25:30;;;;;;;20.92;13.38;;;;;;;;;;10530732;28;20039;-59
2022/10/17 13:30:32;;;;;;;15.32;12.60;;;;;;;;;;10531293;28;20031;-52
2022/10/17 13:35:34;;;;;;;17.08;12.07;;;;;;;;;;10530997;28;20131;-53
2022/10/17 13:40:42;;;;;;;20.05;13.45;;;;;;;;;;10532025;28;20028;-52
2022/10/17 13:45:59;;;;;;;19.90;12.63;;;;;;;;;;10531100;28;20110;-57
2022/10/17 13:51:00;;;;;;;16.20;12.50;;;;;;;;;;10533172;28;20024;-63
2022/10/17 13:56:03;;;;;;;17.77;12.60;;;;;;;;;;10531591;28;20088;-53
2022/10/17 14:01:03;;;;;;;18.13;12.93;;;;;;;;;;10531914;28;20040;-56
2022/10/17 14:06:08;;;;;;;16.55;13.13;;;;;;;;;;10528967;28;20470;-59
2022/10/17 14:11:13;;;;;;;16.00;12.35;;;;;;;;;;10530468;28;20775;-54
2022/10/17 14:16:13;;;;;;;14.52;12.50;;;;;;;;;;10529852;28;20101;-52
2022/10/17 14:21:21;;;;;;;20.42;12.23;;;;;;;;;;10528347;28;20024;-52
2022/10/17 14:26:22;;;;;;;15.70;12.17;;;;;;;;;;10531877;28;20024;-60
2022/10/17 14:31:25;;;;;;;14.27;11.02;;;;;;;;;;10532951;28;20376;-54
2022/10/17 14:36:30;;;;;;;16.25;12.07;;;;;;;;;;10540064;28;20088;-63
2022/10/17 14:41:33;;;;;;;15.02;11.55;;;;;;;;;;10539348;28;20536;-54
2022/10/17 14:46:34;;;;;;;14.85;11.32;;;;;;;;;;10538778;28;20532;-60
2022/10/17 14:51:35;;;;;;;16.10;11.50;;;;;;;;;;10537511;28;20028;-61
2022/10/17 14:56:40;;;;;;;14.63;11.60;;;;;;;;;;10538845;28;20036;-62
2022/10/17 15:01:40;;;;;;;15.77;11.35;;;;;;;;;;10538578;28;20383;-64
2022/10/17 15:06:41;;;;;;;13.70;11.60;;;;;;;;;;10538391;28;20028;-63
2022/10/17 15:11:41;;;;;;;14.60;11.85;;;;;;;;;;10538802;28;20063;-58
2022/10/17 15:16:41;;;;;;;15.32;11.63;;;;;;;;;;10538782;28;20336;-65
2022/10/17 15:21:41;;;;;;;13.50;11.20;;;;;;;;;;10538279;28;20043;-64
2022/10/17 15:26:42;;;;;;;14.10;11.35;;;;;;;;;;10538235;28;20078;-60
2022/10/17 15:31:42;;;;;;;15.57;11.02;;;;;;;;;;10536557;28;20020;-61
2022/10/17 15:36:48;;;;;;;13.03;11.07;;;;;;;;;;10537778;28;20114;-64
2022/10/17 15:41:49;;;;;;;12.82;10.32;;;;;;;;;;10536898;28;20359;-61
2022/10/17 15:46:49;;;;;;;13.93;11.25;;;;;;;;;;10534576;28;20040;-64
2022/10/17 15:51:49;;;;;;;14.60;10.97;;;;;;;;;;10537404;28;20056;-65
2022/10/17 15:56:52;;;;;;;14.00;10.68;;;;;;;;;;10535985;28;20032;-61
2022/10/17 16:01:53;;;;;;;12.00;10.77;;;;;;;;;;10535585;28;20027;-63
2022/10/17 16:06:53;;;;;;;13.15;11.20;;;;;;;;;;10536259;28;20027;-65
2022/10/17 16:11:53;;;;;;;12.80;11.50;;;;;;;;;;10535036;28;20028;-66
2022/10/17 16:16:54;;;;;;;13.23;11.03;;;;;;;;;;10535712;28;20039;-62
2022/10/17 16:21:55;;;;;;;13.32;11.23;;;;;;;;;;10536251;28;20031;-65
2022/10/17 16:26:55;;;;;;;14.23;11.65;;;;;;;;;;10535967;28;20371;-58
2022/10/17 16:31:55;;;;;;;14.80;11.52;;;;;;;;;;10535324;28;20115;-64
2022/10/17 16:36:56;;;;;;;14.10;11.48;;;;;;;;;;10535431;28;20024;-65
2022/10/17 16:41:56;;;;;;;12.98;10.93;;;;;;;;;;10535256;28;20024;-64
2022/10/17 16:46:56;;;;;;;15.70;11.02;;;;;;;;;;10535192;28;20437;-62
2022/10/17 16:51:56;;;;;;;13.27;11.05;;;;;;;;;;10535310;28;20147;-61
2022/10/17 16:56:57;;;;;;;16.48;10.80;;;;;;;;;;10534755;28;20113;-58
2022/10/17 17:01:57;;;;;;;12.35;10.35;;;;;;;;;;10535556;28;20019;-63
2022/10/17 17:06:57;;;;;;;14.07;10.70;;;;;;;;;;10534574;28;20028;-62
2022/10/17 17:11:57;;;;;;;13.30;10.67;;;;;;;;;;10534175;28;20452;-63
2022/10/17 17:16:58;;;;;;;14.05;10.35;;;;;;;;;;10533714;28;20974;-65
2022/10/17 17:21:58;;;;;;;12.90;10.27;;;;;;;;;;10534027;28;20028;-59
2022/10/17 17:26:58;;;;;;;16.10;10.93;;;;;;;;;;10532824;28;20443;-63
2022/10/17 17:31:59;;;;;;;11.77;9.77;;;;;;;;;;10532515;28;20032;-62
2022/10/17 17:36:59;;;;;;;11.65;9.90;;;;;;;;;;10530736;28;20024;-58
2022/10/17 17:41:59;;;;;;;15.60;11.07;;;;;;;;;;10529885;28;20107;-51
2022/10/17 17:47:00;;;;;;;12.80;10.75;;;;;;;;;;10531421;28;20476;-65
2022/10/17 17:52:00;;;;;;;14.35;12.05;;;;;;;;;;10532332;28;20024;-63
2022/10/17 17:57:00;;;;;;;17.73;12.40;;;;;;;;;;10533192;28;20038;-63
2022/10/17 18:02:01;;;;;;;18.17;14.25;;;;;;;;;;10532614;28;20485;-64
2022/10/17 18:07:01;;;;;;;17.95;13.98;;;;;;;;;;10533171;28;20043;-64
2022/10/17 18:12:02;;;;;;;20.42;16.00;;;;;;;;;;10538910;28;20511;-57
2022/10/17 18:17:02;;;;;;;19.35;15.70;;;;;;;;;;10539748;28;20032;-62
2022/10/17 18:22:02;;;;;;;16.00;14.32;;;;;;;;;;10540169;28;20517;-56
2022/10/17 18:27:03;;;;;;;18.58;14.40;;;;;;;;;;10539322;28;20444;-58
2022/10/17 18:32:03;;;;;;;19.67;14.67;;;;;;;;;;10538404;28;20456;-65
2022/10/17 18:37:03;;;;;;;19.17;14.63;;;;;;;;;;10540320;28;20032;-60
2022/10/17 18:42:03;;;;;;;17.67;13.85;;;;;;;;;;10539851;28;20148;-58
2022/10/17 18:47:04;;;;;;;18.00;13.63;;;;;;;;;;10539308;28;20028;-47
2022/10/17 18:52:04;;;;;;;18.55;13.40;;;;;;;;;;10540215;28;20106;-64
2022/10/17 18:57:04;;;;;;;16.67;13.68;;;;;;;;;;10539306;28;20055;-64
2022/10/17 19:02:05;;;;;;;25.50;13.40;;;;;;;;;;10538813;28;20433;-54
2022/10/17 19:07:05;;;;;;;16.50;12.60;;;;;;;;;;10539714;28;20433;-60
2022/10/17 19:12:05;;;;;;;17.88;13.18;;;;;;;;;;10538386;28;20028;-64
2022/10/17 19:17:06;;;;;;;16.30;12.10;;;;;;;;;;10537231;28;20032;-62
2022/10/17 19:22:08;;;;;;;15.95;12.23;;;;;;;;;;10537880;28;20054;-48
2022/10/17 19:27:09;;;;;;;14.82;11.35;;;;;;;;;;10538400;28;20086;-51
2022/10/17 19:32:10;;;;;;;20.92;12.43;;;;;;;;;;10537656;28;20027;-63
2022/10/17 19:37:10;;;;;;;22.25;12.05;;;;;;;;;;10538172;28;20028;-63
2022/10/17 19:42:10;;;;;;;18.67;12.47;;;;;;;;;;10537204;28;20028;-63
2022/10/17 19:47:11;;;;;;;15.97;11.77;;;;;;;;;;10536541;28;20040;-61
2022/10/17 19:52:11;;;;;;;22.07;11.90;;;;;;;;;;10537077;28;20115;-49
2022/10/17 19:57:12;;;;;;;22.10;11.40;;;;;;;;;;10537646;28;20040;-60
2022/10/17 20:02:13;;;;;;;30.00;11.20;;;;;;;;;;10537011;28;20028;-62
2022/10/17 20:07:13;;;;;;;21.83;11.48;;;;;;;;;;10536341;28;20066;-62
2022/10/17 20:12:13;;;;;;;23.42;11.10;;;;;;;;;;10535477;28;20047;-61
2022/10/17 20:17:13;;;;;;;18.70;11.55;;;;;;;;;;10536363;28;20035;-59
2022/10/17 20:22:14;;;;;;;16.63;11.20;;;;;;;;;;10536060;28;20028;-62
2022/10/17 20:27:14;;;;;;;23.10;10.88;;;;;;;;;;10535831;28;20032;-60
2022/10/17 20:32:14;;;;;;;16.77;10.05;;;;;;;;;;10534091;28;20027;-63
2022/10/17 20:37:14;;;;;;;16.23;10.17;;;;;;;;;;10534023;28;20032;-60
2022/10/17 20:42:15;;;;;;;24.60;10.52;;;;;;;;;;10533307;28;20449;-62
2022/10/17 20:47:15;;;;;;;17.98;10.07;;;;;;;;;;10532746;28;20459;-60
2022/10/17 20:52:15;;;;;;;15.15;9.93;;;;;;;;;;10533499;28;20052;-50
2022/10/17 20:57:17;;;;;;;12.75;9.82;;;;;;;;;;10534892;28;20608;-63
2022/10/17 21:02:17;;;;;;;13.77;9.43;;;;;;;;;;10534748;28;20540;-54
2022/10/17 21:07:18;;;;;;;18.83;9.43;;;;;;;;;;10534053;28;20020;-55
2022/10/17 21:12:18;;;;;;;15.60;9.73;;;;;;;;;;10534115;28;20514;-52
2022/10/17 21:17:19;;;;;;;13.35;10.20;;;;;;;;;;10534562;28;20520;-49
2022/10/17 21:22:19;;;;;;;14.50;9.45;;;;;;;;;;10533756;28;20024;-58
2022/10/17 21:27:19;;;;;;;13.43;8.80;;;;;;;;;;10532887;28;20043;-55
2022/10/17 21:32:19;;;;;;;21.02;9.88;;;;;;;;;;10532795;28;20056;-49
2022/10/17 21:37:19;;;;;;;22.00;10.18;;;;;;;;;;10533011;28;20111;-50
2022/10/17 21:42:20;;;;;;;17.20;9.20;;;;;;;;;;10532364;28;20020;-52
2022/10/17 21:47:24;;;;;;;16.30;9.80;;;;;;;;;;10533076;28;20123;-54
2022/10/17 21:52:30;;;;;;;12.02;8.77;;;;;;;;;;10531947;28;20103;-59
2022/10/17 21:57:33;;;;;;;11.40;8.80;;;;;;;;;;10533037;28;20036;-58
2022/10/17 22:02:35;;;;;;;13.15;9.23;;;;;;;;;;10531969;28;20092;-48
2022/10/17 22:07:35;;;;;;;13.88;8.85;;;;;;;;;;10532655;28;20028;-48
2022/10/17 22:12:35;;;;;;;11.40;9.80;;;;;;;;;;10531659;28;20101;-48
2022/10/17 22:17:36;;;;;;;16.85;8.85;;;;;;;;;;10532426;28;20024;-51
2022/10/17 22:22:36;;;;;;;10.38;8.75;;;;;;;;;;10528537;28;20032;-48
2022/10/17 22:27:36;;;;;;;12.60;8.00;;;;;;;;;;10531571;28;20025;-48
2022/10/17 22:32:36;;;;;;;12.98;8.95;;;;;;;;;;10532123;28;20032;-48
2022/10/17 22:37:37;;;;;;;15.43;8.25;;;;;;;;;;10530648;28;20081;-48
2022/10/17 22:42:37;;;;;;;10.07;8.67;;;;;;;;;;10531968;28;20032;-50
2022/10/17 22:47:37;;;;;;;13.55;8.82;;;;;;;;;;10531988;28;20429;-47
2022/10/17 22:52:38;;;;;;;13.00;8.60;;;;;;;;;;10533854;28;20031;-47
2022/10/17 22:57:38;;;;;;;12.93;8.27;;;;;;;;;;10539278;28;20463;-59
2022/10/17 23:02:39;;;;;;;11.43;8.17;;;;;;;;;;10538847;28;20052;-55
2022/10/17 23:07:39;;;;;;;15.15;8.38;;;;;;;;;;10539314;28;20027;-55
2022/10/17 23:12:39;;;;;;;10.65;8.65;;;;;;;;;;10538547;28;20495;-62
2022/10/17 23:17:39;;;;;;;12.37;8.43;;;;;;;;;;10539158;28;20119;-58
2022/10/17 23:22:40;;;;;;;16.55;8.50;;;;;;;;;;10538472;28;20111;-59
2022/10/17 23:27:40;;;;;;;10.80;8.50;;;;;;;;;;10538642;28;20039;-59
2022/10/17 23:32:40;;;;;;;13.20;8.93;;;;;;;;;;10537900;28;20123;-47
2022/10/17 23:37:40;;;;;;;10.82;8.10;;;;;;;;;;10538364;28;20043;-53
2022/10/17 23:42:41;;;;;;;10.43;8.07;;;;;;;;;;10537443;28;20032;-47
2022/10/17 23:47:41;;;;;;;10.63;8.20;;;;;;;;;;10537830;28;20020;-46
2022/10/17 23:52:41;;;;;;;9.38;7.47;;;;;;;;;;10537428;28;20430;-47
2022/10/17 23:57:42;;;;;;;9.17;8.23;;;;;;;;;;10537064;28;20024;-47
